Terminal Aerodrome Forecast
Issued by NWS Jackson, KY

Home | Current Version | Previous Version | Text Only | Print | Product List | Glossary On
Versions: 1 2 3 4 5 6 7 8 9 10 11 12
000
FTUS43 KJKL 231700
TAFLOZ
TAF
KLOZ 231734Z 2318/2418 14008KT P6SM VCSH OVC070
     FM231900 15009KT 5SM -RA BR OVC025
     FM240300 20012G20KT P6SM VCSH OVC050 WS012/20045KT
     FM241200 20014G25KT P6SM BKN050=

USA.gov is the U.S. government's official web portal to all federal, state and local government web resources and services.